sensor_id;sensor_type;location;lat;lon;timestamp;P1;durP1;ratioP1;P2;durP2;ratioP2
16665;SDS011;8446;50.998;6.250;2023-05-10T00:00:10;25.87;;;9.53;;
16665;SDS011;8446;50.998;6.250;2023-05-10T00:02:38;23.60;;;10.00;;
16665;SDS011;8446;50.998;6.250;2023-05-10T00:05:05;25.13;;;10.43;;
16665;SDS011;8446;50.998;6.250;2023-05-10T00:07:33;26.60;;;10.80;;
16665;SDS011;8446;50.998;6.250;2023-05-10T00:09:59;22.50;;;9.43;;
16665;SDS011;8446;50.998;6.250;2023-05-10T00:12:26;24.17;;;9.77;;
16665;SDS011;8446;50.998;6.250;2023-05-10T00:14:54;20.17;;;9.33;;
16665;SDS011;8446;50.998;6.250;2023-05-10T00:17:21;17.57;;;8.83;;
16665;SDS011;8446;50.998;6.250;2023-05-10T00:19:48;18.63;;;8.60;;
16665;SDS011;8446;50.998;6.250;2023-05-10T00:22:15;28.50;;;9.67;;
16665;SDS011;8446;50.998;6.250;2023-05-10T00:24:41;21.90;;;9.27;;
16665;SDS011;8446;50.998;6.250;2023-05-10T00:27:08;21.23;;;9.93;;
16665;SDS011;8446;50.998;6.250;2023-05-10T00:29:35;33.27;;;10.50;;
16665;SDS011;8446;50.998;6.250;2023-05-10T00:32:03;31.67;;;10.07;;
16665;SDS011;8446;50.998;6.250;2023-05-10T00:34:30;21.50;;;9.80;;
16665;SDS011;8446;50.998;6.250;2023-05-10T00:36:57;28.07;;;8.70;;
16665;SDS011;8446;50.998;6.250;2023-05-10T00:39:24;20.10;;;9.20;;
16665;SDS011;8446;50.998;6.250;2023-05-10T00:41:51;23.47;;;9.20;;
16665;SDS011;8446;50.998;6.250;2023-05-10T00:44:18;25.80;;;10.37;;
16665;SDS011;8446;50.998;6.250;2023-05-10T00:46:45;31.37;;;11.17;;
16665;SDS011;8446;50.998;6.250;2023-05-10T00:49:14;39.77;;;10.73;;
16665;SDS011;8446;50.998;6.250;2023-05-10T00:51:41;24.13;;;10.20;;
16665;SDS011;8446;50.998;6.250;2023-05-10T00:54:09;32.97;;;10.33;;
16665;SDS011;8446;50.998;6.250;2023-05-10T00:56:38;27.00;;;10.53;;
16665;SDS011;8446;50.998;6.250;2023-05-10T00:59:05;35.77;;;11.43;;
16665;SDS011;8446;50.998;6.250;2023-05-10T01:01:32;32.37;;;11.37;;
16665;SDS011;8446;50.998;6.250;2023-05-10T01:03:59;29.70;;;12.10;;
16665;SDS011;8446;50.998;6.250;2023-05-10T01:06:27;29.83;;;11.97;;
16665;SDS011;8446;50.998;6.250;2023-05-10T01:08:54;32.03;;;11.00;;
16665;SDS011;8446;50.998;6.250;2023-05-10T01:11:22;28.73;;;11.37;;
16665;SDS011;8446;50.998;6.250;2023-05-10T01:13:50;20.63;;;9.30;;
16665;SDS011;8446;50.998;6.250;2023-05-10T01:16:20;27.10;;;9.17;;
16665;SDS011;8446;50.998;6.250;2023-05-10T01:18:46;18.83;;;8.57;;
16665;SDS011;8446;50.998;6.250;2023-05-10T01:21:17;18.90;;;8.50;;
16665;SDS011;8446;50.998;6.250;2023-05-10T01:24:01;22.20;;;9.33;;
16665;SDS011;8446;50.998;6.250;2023-05-10T01:30:05;18.23;;;6.90;;
16665;SDS011;8446;50.998;6.250;2023-05-10T01:33:09;19.80;;;8.73;;
16665;SDS011;8446;50.998;6.250;2023-05-10T01:35:43;15.50;;;7.53;;
16665;SDS011;8446;50.998;6.250;2023-05-10T01:38:18;22.10;;;8.77;;
16665;SDS011;8446;50.998;6.250;2023-05-10T01:40:55;19.70;;;8.67;;
16665;SDS011;8446;50.998;6.250;2023-05-10T01:43:32;16.83;;;7.90;;
16665;SDS011;8446;50.998;6.250;2023-05-10T01:46:09;21.53;;;8.80;;
16665;SDS011;8446;50.998;6.250;2023-05-10T01:48:44;30.00;;;10.47;;
16665;SDS011;8446;50.998;6.250;2023-05-10T01:51:15;26.50;;;9.87;;
16665;SDS011;8446;50.998;6.250;2023-05-10T01:53:47;19.67;;;10.07;;
16665;SDS011;8446;50.998;6.250;2023-05-10T01:56:16;34.97;;;10.83;;
16665;SDS011;8446;50.998;6.250;2023-05-10T01:58:46;36.63;;;13.00;;
16665;SDS011;8446;50.998;6.250;2023-05-10T02:01:15;30.17;;;12.03;;
16665;SDS011;8446;50.998;6.250;2023-05-10T02:03:45;32.40;;;13.20;;
16665;SDS011;8446;50.998;6.250;2023-05-10T02:06:13;39.50;;;13.70;;
16665;SDS011;8446;50.998;6.250;2023-05-10T02:08:42;29.03;;;11.67;;
16665;SDS011;8446;50.998;6.250;2023-05-10T02:11:11;37.70;;;12.37;;
16665;SDS011;8446;50.998;6.250;2023-05-10T02:13:39;43.13;;;12.77;;
16665;SDS011;8446;50.998;6.250;2023-05-10T02:16:10;29.23;;;11.27;;
16665;SDS011;8446;50.998;6.250;2023-05-10T02:18:38;39.10;;;12.20;;
16665;SDS011;8446;50.998;6.250;2023-05-10T02:21:08;36.30;;;12.33;;
16665;SDS011;8446;50.998;6.250;2023-05-10T02:23:36;35.60;;;14.07;;
16665;SDS011;8446;50.998;6.250;2023-05-10T02:26:04;42.73;;;13.33;;
16665;SDS011;8446;50.998;6.250;2023-05-10T02:28:32;34.40;;;13.90;;
16665;SDS011;8446;50.998;6.250;2023-05-10T02:31:02;33.17;;;12.50;;
16665;SDS011;8446;50.998;6.250;2023-05-10T02:33:30;37.80;;;14.00;;
16665;SDS011;8446;50.998;6.250;2023-05-10T02:35:58;42.00;;;12.97;;
16665;SDS011;8446;50.998;6.250;2023-05-10T02:38:28;32.43;;;13.80;;
16665;SDS011;8446;50.998;6.250;2023-05-10T02:40:56;41.30;;;14.53;;
16665;SDS011;8446;50.998;6.250;2023-05-10T02:43:24;42.90;;;15.07;;
16665;SDS011;8446;50.998;6.250;2023-05-10T02:45:51;31.30;;;13.13;;
16665;SDS011;8446;50.998;6.250;2023-05-10T02:48:18;43.30;;;14.60;;
16665;SDS011;8446;50.998;6.250;2023-05-10T02:50:45;41.57;;;13.93;;
16665;SDS011;8446;50.998;6.250;2023-05-10T02:53:18;30.97;;;13.37;;
16665;SDS011;8446;50.998;6.250;2023-05-10T02:55:50;34.50;;;13.77;;
16665;SDS011;8446;50.998;6.250;2023-05-10T02:58:18;34.67;;;14.80;;
16665;SDS011;8446;50.998;6.250;2023-05-10T03:00:46;32.40;;;14.77;;
16665;SDS011;8446;50.998;6.250;2023-05-10T03:03:13;29.07;;;12.10;;
16665;SDS011;8446;50.998;6.250;2023-05-10T03:05:39;29.40;;;13.40;;
16665;SDS011;8446;50.998;6.250;2023-05-10T03:08:06;36.50;;;12.50;;
16665;SDS011;8446;50.998;6.250;2023-05-10T03:10:33;32.30;;;14.07;;
16665;SDS011;8446;50.998;6.250;2023-05-10T03:13:10;33.03;;;11.37;;
16665;SDS011;8446;50.998;6.250;2023-05-10T03:15:47;26.97;;;11.50;;
16665;SDS011;8446;50.998;6.250;2023-05-10T03:18:21;24.47;;;11.00;;
16665;SDS011;8446;50.998;6.250;2023-05-10T03:20:49;20.83;;;11.70;;
16665;SDS011;8446;50.998;6.250;2023-05-10T03:23:20;24.40;;;10.90;;
16665;SDS011;8446;50.998;6.250;2023-05-10T03:25:50;26.40;;;10.90;;
16665;SDS011;8446;50.998;6.250;2023-05-10T03:28:20;28.43;;;11.63;;
16665;SDS011;8446;50.998;6.250;2023-05-10T03:30:47;22.07;;;11.30;;
16665;SDS011;8446;50.998;6.250;2023-05-10T03:33:15;18.77;;;9.73;;
16665;SDS011;8446;50.998;6.250;2023-05-10T03:35:42;36.97;;;11.50;;
16665;SDS011;8446;50.998;6.250;2023-05-10T03:38:10;18.83;;;9.80;;
16665;SDS011;8446;50.998;6.250;2023-05-10T03:40:37;28.73;;;10.57;;
16665;SDS011;8446;50.998;6.250;2023-05-10T03:43:04;23.57;;;10.47;;
16665;SDS011;8446;50.998;6.250;2023-05-10T03:45:33;37.13;;;12.13;;
16665;SDS011;8446;50.998;6.250;2023-05-10T03:47:59;23.33;;;10.27;;
16665;SDS011;8446;50.998;6.250;2023-05-10T03:50:26;26.83;;;11.03;;
16665;SDS011;8446;50.998;6.250;2023-05-10T03:52:53;28.83;;;11.37;;
16665;SDS011;8446;50.998;6.250;2023-05-10T03:55:20;23.20;;;10.90;;
16665;SDS011;8446;50.998;6.250;2023-05-10T03:57:47;34.70;;;11.57;;
16665;SDS011;8446;50.998;6.250;2023-05-10T04:00:14;29.83;;;11.87;;
16665;SDS011;8446;50.998;6.250;2023-05-10T04:02:43;26.50;;;12.53;;
16665;SDS011;8446;50.998;6.250;2023-05-10T04:05:10;26.93;;;10.67;;
16665;SDS011;8446;50.998;6.250;2023-05-10T04:07:37;37.50;;;11.47;;
16665;SDS011;8446;50.998;6.250;2023-05-10T04:10:04;36.03;;;12.57;;
16665;SDS011;8446;50.998;6.250;2023-05-10T04:12:32;28.90;;;11.80;;
16665;SDS011;8446;50.998;6.250;2023-05-10T04:14:58;36.20;;;12.13;;
16665;SDS011;8446;50.998;6.250;2023-05-10T04:17:25;40.10;;;13.10;;
16665;SDS011;8446;50.998;6.250;2023-05-10T04:19:53;35.50;;;12.87;;
16665;SDS011;8446;50.998;6.250;2023-05-10T04:22:22;28.37;;;11.93;;
16665;SDS011;8446;50.998;6.250;2023-05-10T04:24:48;31.03;;;12.37;;
16665;SDS011;8446;50.998;6.250;2023-05-10T04:27:15;30.80;;;13.03;;
16665;SDS011;8446;50.998;6.250;2023-05-10T04:29:42;36.30;;;14.70;;
16665;SDS011;8446;50.998;6.250;2023-05-10T04:32:09;39.07;;;13.47;;
16665;SDS011;8446;50.998;6.250;2023-05-10T04:34:36;39.53;;;12.97;;
16665;SDS011;8446;50.998;6.250;2023-05-10T04:37:04;42.17;;;12.73;;
16665;SDS011;8446;50.998;6.250;2023-05-10T04:39:32;39.17;;;14.27;;
16665;SDS011;8446;50.998;6.250;2023-05-10T04:42:00;40.13;;;14.67;;
16665;SDS011;8446;50.998;6.250;2023-05-10T04:44:27;41.50;;;12.60;;
16665;SDS011;8446;50.998;6.250;2023-05-10T04:46:54;42.20;;;12.90;;
16665;SDS011;8446;50.998;6.250;2023-05-10T04:49:21;36.23;;;13.83;;
16665;SDS011;8446;50.998;6.250;2023-05-10T04:51:48;40.20;;;14.17;;
16665;SDS011;8446;50.998;6.250;2023-05-10T04:54:16;39.40;;;13.90;;
16665;SDS011;8446;50.998;6.250;2023-05-10T04:56:43;39.20;;;14.13;;
16665;SDS011;8446;50.998;6.250;2023-05-10T04:59:09;51.33;;;14.50;;
16665;SDS011;8446;50.998;6.250;2023-05-10T05:01:36;44.33;;;12.80;;
16665;SDS011;8446;50.998;6.250;2023-05-10T05:04:03;40.13;;;14.60;;
16665;SDS011;8446;50.998;6.250;2023-05-10T05:06:30;38.63;;;13.27;;
16665;SDS011;8446;50.998;6.250;2023-05-10T05:08:57;33.20;;;12.97;;
16665;SDS011;8446;50.998;6.250;2023-05-10T05:11:25;52.30;;;15.00;;
16665;SDS011;8446;50.998;6.250;2023-05-10T05:13:52;46.47;;;13.30;;
16665;SDS011;8446;50.998;6.250;2023-05-10T05:16:19;38.03;;;15.00;;
16665;SDS011;8446;50.998;6.250;2023-05-10T05:18:46;36.03;;;13.80;;
16665;SDS011;8446;50.998;6.250;2023-05-10T05:21:13;43.23;;;15.50;;
16665;SDS011;8446;50.998;6.250;2023-05-10T05:23:41;54.97;;;15.47;;
16665;SDS011;8446;50.998;6.250;2023-05-10T05:26:08;56.33;;;16.70;;
16665;SDS011;8446;50.998;6.250;2023-05-10T05:28:37;41.53;;;13.57;;
16665;SDS011;8446;50.998;6.250;2023-05-10T05:31:04;41.93;;;14.40;;
16665;SDS011;8446;50.998;6.250;2023-05-10T05:33:32;52.37;;;15.83;;
16665;SDS011;8446;50.998;6.250;2023-05-10T05:36:00;54.23;;;16.10;;
16665;SDS011;8446;50.998;6.250;2023-05-10T05:38:27;42.03;;;15.90;;
16665;SDS011;8446;50.998;6.250;2023-05-10T05:40:53;50.20;;;16.10;;
16665;SDS011;8446;50.998;6.250;2023-05-10T05:43:20;40.37;;;14.57;;
16665;SDS011;8446;50.998;6.250;2023-05-10T05:45:48;46.93;;;15.07;;
16665;SDS011;8446;50.998;6.250;2023-05-10T05:48:15;55.97;;;15.70;;
16665;SDS011;8446;50.998;6.250;2023-05-10T05:50:42;41.27;;;16.23;;
16665;SDS011;8446;50.998;6.250;2023-05-10T05:53:09;41.83;;;15.03;;
16665;SDS011;8446;50.998;6.250;2023-05-10T05:55:35;57.33;;;14.70;;
16665;SDS011;8446;50.998;6.250;2023-05-10T05:58:02;47.00;;;14.77;;
16665;SDS011;8446;50.998;6.250;2023-05-10T06:00:29;47.83;;;15.97;;
16665;SDS011;8446;50.998;6.250;2023-05-10T06:02:57;57.70;;;15.20;;
16665;SDS011;8446;50.998;6.250;2023-05-10T06:05:24;43.87;;;15.93;;
16665;SDS011;8446;50.998;6.250;2023-05-10T06:07:51;47.10;;;16.93;;
16665;SDS011;8446;50.998;6.250;2023-05-10T06:10:17;59.13;;;16.90;;
16665;SDS011;8446;50.998;6.250;2023-05-10T06:12:44;49.60;;;16.13;;
16665;SDS011;8446;50.998;6.250;2023-05-10T06:15:11;63.13;;;16.13;;
16665;SDS011;8446;50.998;6.250;2023-05-10T06:17:38;48.13;;;16.83;;
16665;SDS011;8446;50.998;6.250;2023-05-10T06:20:07;47.47;;;16.40;;
16665;SDS011;8446;50.998;6.250;2023-05-10T06:22:34;46.93;;;15.47;;
16665;SDS011;8446;50.998;6.250;2023-05-10T06:25:01;45.63;;;16.33;;
16665;SDS011;8446;50.998;6.250;2023-05-10T06:27:28;47.83;;;15.90;;
16665;SDS011;8446;50.998;6.250;2023-05-10T06:29:55;43.37;;;16.10;;
16665;SDS011;8446;50.998;6.250;2023-05-10T06:32:21;57.00;;;16.87;;
16665;SDS011;8446;50.998;6.250;2023-05-10T06:34:48;60.50;;;16.13;;
16665;SDS011;8446;50.998;6.250;2023-05-10T06:37:17;45.60;;;17.30;;
16665;SDS011;8446;50.998;6.250;2023-05-10T06:39:44;51.70;;;14.40;;
16665;SDS011;8446;50.998;6.250;2023-05-10T06:42:11;61.03;;;16.63;;
16665;SDS011;8446;50.998;6.250;2023-05-10T06:44:37;53.80;;;16.27;;
16665;SDS011;8446;50.998;6.250;2023-05-10T06:47:04;50.90;;;15.93;;
16665;SDS011;8446;50.998;6.250;2023-05-10T06:49:31;40.03;;;13.30;;
16665;SDS011;8446;50.998;6.250;2023-05-10T06:51:58;46.20;;;14.00;;
16665;SDS011;8446;50.998;6.250;2023-05-10T06:54:26;52.50;;;15.83;;
16665;SDS011;8446;50.998;6.250;2023-05-10T06:56:53;58.90;;;17.17;;
16665;SDS011;8446;50.998;6.250;2023-05-10T06:59:19;53.50;;;17.20;;
16665;SDS011;8446;50.998;6.250;2023-05-10T07:01:46;47.47;;;16.80;;
16665;SDS011;8446;50.998;6.250;2023-05-10T07:04:13;58.23;;;16.77;;
16665;SDS011;8446;50.998;6.250;2023-05-10T07:06:40;55.20;;;16.30;;
16665;SDS011;8446;50.998;6.250;2023-05-10T07:09:07;51.43;;;16.07;;
16665;SDS011;8446;50.998;6.250;2023-05-10T07:11:35;47.13;;;17.20;;
16665;SDS011;8446;50.998;6.250;2023-05-10T07:14:02;51.67;;;15.13;;
16665;SDS011;8446;50.998;6.250;2023-05-10T07:16:29;40.83;;;14.47;;
16665;SDS011;8446;50.998;6.250;2023-05-10T07:18:56;43.60;;;14.73;;
16665;SDS011;8446;50.998;6.250;2023-05-10T07:21:23;43.13;;;15.57;;
16665;SDS011;8446;50.998;6.250;2023-05-10T07:23:50;39.40;;;14.20;;
16665;SDS011;8446;50.998;6.250;2023-05-10T07:26:17;43.40;;;14.53;;
16665;SDS011;8446;50.998;6.250;2023-05-10T07:28:45;48.93;;;14.03;;
16665;SDS011;8446;50.998;6.250;2023-05-10T07:31:12;42.87;;;14.30;;
16665;SDS011;8446;50.998;6.250;2023-05-10T07:33:39;44.13;;;14.30;;
16665;SDS011;8446;50.998;6.250;2023-05-10T07:36:06;41.00;;;14.57;;
16665;SDS011;8446;50.998;6.250;2023-05-10T07:38:33;41.70;;;12.60;;
16665;SDS011;8446;50.998;6.250;2023-05-10T07:41:00;41.67;;;13.97;;
16665;SDS011;8446;50.998;6.250;2023-05-10T07:43:26;37.07;;;14.20;;
16665;SDS011;8446;50.998;6.250;2023-05-10T07:45:55;38.80;;;13.80;;
16665;SDS011;8446;50.998;6.250;2023-05-10T07:48:22;39.30;;;13.43;;
16665;SDS011;8446;50.998;6.250;2023-05-10T07:50:49;39.03;;;12.90;;
16665;SDS011;8446;50.998;6.250;2023-05-10T07:53:16;40.00;;;13.20;;
16665;SDS011;8446;50.998;6.250;2023-05-10T07:55:43;41.67;;;12.70;;
16665;SDS011;8446;50.998;6.250;2023-05-10T07:58:15;41.00;;;12.97;;
16665;SDS011;8446;50.998;6.250;2023-05-10T08:00:42;41.70;;;13.63;;
16665;SDS011;8446;50.998;6.250;2023-05-10T08:03:10;40.50;;;12.73;;
16665;SDS011;8446;50.998;6.250;2023-05-10T08:05:37;33.23;;;12.03;;
16665;SDS011;8446;50.998;6.250;2023-05-10T08:08:04;34.87;;;12.93;;
16665;SDS011;8446;50.998;6.250;2023-05-10T08:10:31;39.87;;;12.60;;
16665;SDS011;8446;50.998;6.250;2023-05-10T08:12:58;47.00;;;14.03;;
16665;SDS011;8446;50.998;6.250;2023-05-10T08:15:24;60.27;;;15.90;;
16665;SDS011;8446;50.998;6.250;2023-05-10T08:17:51;59.07;;;17.00;;
16665;SDS011;8446;50.998;6.250;2023-05-10T08:20:20;59.17;;;16.07;;
16665;SDS011;8446;50.998;6.250;2023-05-10T08:22:47;62.63;;;17.30;;
16665;SDS011;8446;50.998;6.250;2023-05-10T08:25:14;58.10;;;16.53;;
16665;SDS011;8446;50.998;6.250;2023-05-10T08:27:41;56.60;;;17.20;;
16665;SDS011;8446;50.998;6.250;2023-05-10T08:30:08;58.83;;;17.90;;
16665;SDS011;8446;50.998;6.250;2023-05-10T08:32:36;52.50;;;16.10;;
16665;SDS011;8446;50.998;6.250;2023-05-10T08:35:03;50.87;;;15.10;;
16665;SDS011;8446;50.998;6.250;2023-05-10T08:37:31;52.57;;;15.90;;
16665;SDS011;8446;50.998;6.250;2023-05-10T08:39:58;58.63;;;13.13;;
16665;SDS011;8446;50.998;6.250;2023-05-10T08:42:25;53.63;;;16.80;;
16665;SDS011;8446;50.998;6.250;2023-05-10T08:44:56;46.57;;;15.30;;
16665;SDS011;8446;50.998;6.250;2023-05-10T08:47:23;53.97;;;17.47;;
16665;SDS011;8446;50.998;6.250;2023-05-10T08:49:51;56.77;;;17.30;;
16665;SDS011;8446;50.998;6.250;2023-05-10T08:52:19;53.97;;;18.00;;
16665;SDS011;8446;50.998;6.250;2023-05-10T08:54:48;52.43;;;14.57;;
16665;SDS011;8446;50.998;6.250;2023-05-10T08:57:15;58.47;;;15.77;;
16665;SDS011;8446;50.998;6.250;2023-05-10T08:59:42;37.53;;;14.03;;
16665;SDS011;8446;50.998;6.250;2023-05-10T09:02:09;43.33;;;14.40;;
16665;SDS011;8446;50.998;6.250;2023-05-10T09:04:39;41.77;;;12.63;;
16665;SDS011;8446;50.998;6.250;2023-05-10T09:07:06;39.20;;;15.57;;
16665;SDS011;8446;50.998;6.250;2023-05-10T09:09:33;28.67;;;12.90;;
16665;SDS011;8446;50.998;6.250;2023-05-10T09:12:02;32.23;;;12.90;;
16665;SDS011;8446;50.998;6.250;2023-05-10T09:14:29;26.40;;;11.53;;
16665;SDS011;8446;50.998;6.250;2023-05-10T09:17:00;30.37;;;11.60;;
16665;SDS011;8446;50.998;6.250;2023-05-10T09:19:27;28.13;;;11.57;;
16665;SDS011;8446;50.998;6.250;2023-05-10T09:21:54;26.23;;;11.60;;
16665;SDS011;8446;50.998;6.250;2023-05-10T09:24:24;23.07;;;10.63;;
16665;SDS011;8446;50.998;6.250;2023-05-10T09:26:52;47.07;;;15.40;;
16665;SDS011;8446;50.998;6.250;2023-05-10T09:29:20;22.00;;;10.73;;
16665;SDS011;8446;50.998;6.250;2023-05-10T09:31:47;23.90;;;10.83;;
16665;SDS011;8446;50.998;6.250;2023-05-10T09:34:16;25.43;;;8.97;;
16665;SDS011;8446;50.998;6.250;2023-05-10T09:36:51;20.93;;;11.33;;
16665;SDS011;8446;50.998;6.250;2023-05-10T09:39:19;28.70;;;11.13;;
16665;SDS011;8446;50.998;6.250;2023-05-10T09:41:46;26.97;;;11.90;;
16665;SDS011;8446;50.998;6.250;2023-05-10T09:44:16;20.17;;;9.83;;
16665;SDS011;8446;50.998;6.250;2023-05-10T09:46:49;25.30;;;11.57;;
16665;SDS011;8446;50.998;6.250;2023-05-10T09:49:17;20.97;;;9.17;;
16665;SDS011;8446;50.998;6.250;2023-05-10T09:51:44;16.83;;;9.00;;
16665;SDS011;8446;50.998;6.250;2023-05-10T09:54:12;21.07;;;9.83;;
16665;SDS011;8446;50.998;6.250;2023-05-10T09:56:40;16.50;;;8.30;;
16665;SDS011;8446;50.998;6.250;2023-05-10T09:59:09;14.90;;;8.70;;
16665;SDS011;8446;50.998;6.250;2023-05-10T10:01:38;14.70;;;7.73;;
16665;SDS011;8446;50.998;6.250;2023-05-10T10:04:08;13.03;;;6.63;;
16665;SDS011;8446;50.998;6.250;2023-05-10T10:06:36;11.87;;;6.70;;
16665;SDS011;8446;50.998;6.250;2023-05-10T10:09:03;16.97;;;7.93;;
16665;SDS011;8446;50.998;6.250;2023-05-10T10:11:31;12.50;;;7.23;;
16665;SDS011;8446;50.998;6.250;2023-05-10T10:13:59;16.80;;;7.77;;
16665;SDS011;8446;50.998;6.250;2023-05-10T10:16:27;16.10;;;8.10;;
16665;SDS011;8446;50.998;6.250;2023-05-10T10:18:54;11.47;;;6.80;;
16665;SDS011;8446;50.998;6.250;2023-05-10T10:21:23;11.27;;;7.20;;
16665;SDS011;8446;50.998;6.250;2023-05-10T10:23:50;11.90;;;6.90;;
16665;SDS011;8446;50.998;6.250;2023-05-10T10:26:18;14.70;;;7.70;;
16665;SDS011;8446;50.998;6.250;2023-05-10T10:28:47;9.60;;;6.10;;
16665;SDS011;8446;50.998;6.250;2023-05-10T10:31:24;11.47;;;7.03;;
16665;SDS011;8446;50.998;6.250;2023-05-10T10:34:03;12.50;;;6.93;;
16665;SDS011;8446;50.998;6.250;2023-05-10T10:36:34;11.40;;;6.73;;
16665;SDS011;8446;50.998;6.250;2023-05-10T10:39:08;7.70;;;4.70;;
16665;SDS011;8446;50.998;6.250;2023-05-10T10:41:36;12.17;;;6.10;;
16665;SDS011;8446;50.998;6.250;2023-05-10T10:44:24;8.30;;;5.77;;
16665;SDS011;8446;50.998;6.250;2023-05-10T10:46:59;10.23;;;6.33;;
16665;SDS011;8446;50.998;6.250;2023-05-10T10:49:36;7.70;;;4.90;;
16665;SDS011;8446;50.998;6.250;2023-05-10T10:52:15;8.97;;;4.60;;
16665;SDS011;8446;50.998;6.250;2023-05-10T10:54:49;7.97;;;5.10;;
16665;SDS011;8446;50.998;6.250;2023-05-10T10:57:17;5.57;;;4.60;;
16665;SDS011;8446;50.998;6.250;2023-05-10T10:59:46;7.27;;;5.07;;
16665;SDS011;8446;50.998;6.250;2023-05-10T11:04:58;7.13;;;4.53;;
16665;SDS011;8446;50.998;6.250;2023-05-10T11:07:27;9.17;;;4.90;;
16665;SDS011;8446;50.998;6.250;2023-05-10T11:09:54;6.17;;;4.93;;
16665;SDS011;8446;50.998;6.250;2023-05-10T11:12:21;6.80;;;4.97;;
16665;SDS011;8446;50.998;6.250;2023-05-10T11:14:49;7.60;;;5.47;;
16665;SDS011;8446;50.998;6.250;2023-05-10T11:17:23;8.37;;;5.70;;
16665;SDS011;8446;50.998;6.250;2023-05-10T11:20:06;11.80;;;6.73;;
16665;SDS011;8446;50.998;6.250;2023-05-10T11:25:27;12.17;;;6.63;;
16665;SDS011;8446;50.998;6.250;2023-05-10T11:27:54;11.43;;;6.50;;
16665;SDS011;8446;50.998;6.250;2023-05-10T11:30:21;12.30;;;7.93;;
16665;SDS011;8446;50.998;6.250;2023-05-10T11:32:48;12.67;;;7.20;;
16665;SDS011;8446;50.998;6.250;2023-05-10T11:35:15;9.60;;;6.67;;
16665;SDS011;8446;50.998;6.250;2023-05-10T11:37:42;12.10;;;7.23;;
16665;SDS011;8446;50.998;6.250;2023-05-10T11:40:13;10.17;;;6.67;;
16665;SDS011;8446;50.998;6.250;2023-05-10T11:42:42;7.90;;;5.37;;
16665;SDS011;8446;50.998;6.250;2023-05-10T11:45:09;8.70;;;5.80;;
16665;SDS011;8446;50.998;6.250;2023-05-10T11:47:36;9.17;;;6.10;;
16665;SDS011;8446;50.998;6.250;2023-05-10T11:50:04;8.40;;;4.73;;
16665;SDS011;8446;50.998;6.250;2023-05-10T11:52:35;7.80;;;5.20;;
16665;SDS011;8446;50.998;6.250;2023-05-10T11:55:02;7.40;;;4.60;;
16665;SDS011;8446;50.998;6.250;2023-05-10T11:57:29;6.57;;;4.80;;
16665;SDS011;8446;50.998;6.250;2023-05-10T11:59:58;5.37;;;3.83;;
16665;SDS011;8446;50.998;6.250;2023-05-10T12:02:24;5.67;;;3.60;;
16665;SDS011;8446;50.998;6.250;2023-05-10T12:04:51;5.90;;;4.27;;
16665;SDS011;8446;50.998;6.250;2023-05-10T12:07:18;7.53;;;4.10;;
16665;SDS011;8446;50.998;6.250;2023-05-10T12:12:37;5.47;;;3.77;;
16665;SDS011;8446;50.998;6.250;2023-05-10T12:15:08;5.83;;;4.07;;
16665;SDS011;8446;50.998;6.250;2023-05-10T12:17:37;4.37;;;2.70;;
16665;SDS011;8446;50.998;6.250;2023-05-10T12:20:14;5.20;;;3.50;;
16665;SDS011;8446;50.998;6.250;2023-05-10T12:22:45;3.10;;;2.80;;
16665;SDS011;8446;50.998;6.250;2023-05-10T12:25:13;5.57;;;3.90;;
16665;SDS011;8446;50.998;6.250;2023-05-10T12:27:40;3.67;;;3.30;;
16665;SDS011;8446;50.998;6.250;2023-05-10T12:30:09;4.63;;;3.47;;
16665;SDS011;8446;50.998;6.250;2023-05-10T12:32:37;5.23;;;3.37;;
16665;SDS011;8446;50.998;6.250;2023-05-10T12:35:04;4.73;;;3.40;;
16665;SDS011;8446;50.998;6.250;2023-05-10T12:37:32;2.77;;;2.40;;
16665;SDS011;8446;50.998;6.250;2023-05-10T12:40:00;3.37;;;2.90;;
16665;SDS011;8446;50.998;6.250;2023-05-10T12:42:30;3.20;;;2.63;;
16665;SDS011;8446;50.998;6.250;2023-05-10T12:44:57;3.30;;;2.37;;
16665;SDS011;8446;50.998;6.250;2023-05-10T12:47:25;4.10;;;3.07;;
16665;SDS011;8446;50.998;6.250;2023-05-10T12:49:52;4.47;;;2.90;;
16665;SDS011;8446;50.998;6.250;2023-05-10T12:52:18;2.60;;;2.40;;
16665;SDS011;8446;50.998;6.250;2023-05-10T12:54:45;4.20;;;2.60;;
16665;SDS011;8446;50.998;6.250;2023-05-10T12:57:12;3.37;;;2.67;;
16665;SDS011;8446;50.998;6.250;2023-05-10T12:59:39;5.30;;;3.20;;
16665;SDS011;8446;50.998;6.250;2023-05-10T13:02:06;3.80;;;3.13;;
16665;SDS011;8446;50.998;6.250;2023-05-10T13:04:34;4.37;;;3.30;;
16665;SDS011;8446;50.998;6.250;2023-05-10T13:07:04;9.87;;;3.07;;
16665;SDS011;8446;50.998;6.250;2023-05-10T13:09:31;4.07;;;3.67;;
16665;SDS011;8446;50.998;6.250;2023-05-10T13:11:58;4.03;;;2.93;;
16665;SDS011;8446;50.998;6.250;2023-05-10T13:14:25;4.30;;;3.10;;
16665;SDS011;8446;50.998;6.250;2023-05-10T13:16:52;5.30;;;3.20;;
16665;SDS011;8446;50.998;6.250;2023-05-10T13:19:19;3.87;;;3.47;;
16665;SDS011;8446;50.998;6.250;2023-05-10T13:21:47;3.53;;;2.60;;
16665;SDS011;8446;50.998;6.250;2023-05-10T13:24:14;5.37;;;3.43;;
16665;SDS011;8446;50.998;6.250;2023-05-10T13:26:42;4.80;;;2.93;;
16665;SDS011;8446;50.998;6.250;2023-05-10T13:29:09;4.30;;;3.40;;
16665;SDS011;8446;50.998;6.250;2023-05-10T13:31:36;8.10;;;3.63;;
16665;SDS011;8446;50.998;6.250;2023-05-10T13:34:03;5.00;;;3.23;;
16665;SDS011;8446;50.998;6.250;2023-05-10T13:36:31;4.70;;;3.23;;
16665;SDS011;8446;50.998;6.250;2023-05-10T13:38:59;4.67;;;3.27;;
16665;SDS011;8446;50.998;6.250;2023-05-10T13:41:28;4.60;;;2.70;;
16665;SDS011;8446;50.998;6.250;2023-05-10T13:43:55;3.27;;;2.87;;
16665;SDS011;8446;50.998;6.250;2023-05-10T13:46:21;9.30;;;3.23;;
16665;SDS011;8446;50.998;6.250;2023-05-10T13:48:48;4.63;;;2.80;;
16665;SDS011;8446;50.998;6.250;2023-05-10T13:51:15;3.23;;;2.93;;
16665;SDS011;8446;50.998;6.250;2023-05-10T13:53:42;3.33;;;2.43;;
16665;SDS011;8446;50.998;6.250;2023-05-10T13:56:10;3.50;;;2.67;;
16665;SDS011;8446;50.998;6.250;2023-05-10T13:58:37;2.97;;;2.50;;
16665;SDS011;8446;50.998;6.250;2023-05-10T14:01:04;3.50;;;2.30;;
16665;SDS011;8446;50.998;6.250;2023-05-10T14:03:30;2.77;;;2.20;;
16665;SDS011;8446;50.998;6.250;2023-05-10T14:05:57;2.43;;;1.83;;
16665;SDS011;8446;50.998;6.250;2023-05-10T14:08:25;3.40;;;2.50;;
16665;SDS011;8446;50.998;6.250;2023-05-10T14:10:52;2.77;;;2.40;;
16665;SDS011;8446;50.998;6.250;2023-05-10T14:13:22;3.90;;;2.77;;
16665;SDS011;8446;50.998;6.250;2023-05-10T14:15:50;4.00;;;2.57;;
16665;SDS011;8446;50.998;6.250;2023-05-10T14:18:17;6.80;;;3.20;;
16665;SDS011;8446;50.998;6.250;2023-05-10T14:20:44;3.13;;;2.23;;
16665;SDS011;8446;50.998;6.250;2023-05-10T14:23:10;4.90;;;2.20;;
16665;SDS011;8446;50.998;6.250;2023-05-10T14:25:37;3.43;;;2.60;;
16665;SDS011;8446;50.998;6.250;2023-05-10T14:28:05;2.83;;;2.23;;
16665;SDS011;8446;50.998;6.250;2023-05-10T14:30:33;4.43;;;3.03;;
16665;SDS011;8446;50.998;6.250;2023-05-10T14:33:01;4.50;;;2.73;;
16665;SDS011;8446;50.998;6.250;2023-05-10T14:35:28;3.53;;;2.80;;
16665;SDS011;8446;50.998;6.250;2023-05-10T14:37:56;2.60;;;2.30;;
16665;SDS011;8446;50.998;6.250;2023-05-10T14:40:23;6.70;;;2.60;;
16665;SDS011;8446;50.998;6.250;2023-05-10T14:42:50;3.30;;;2.87;;
16665;SDS011;8446;50.998;6.250;2023-05-10T14:45:17;4.90;;;2.67;;
16665;SDS011;8446;50.998;6.250;2023-05-10T14:47:46;2.87;;;2.50;;
16665;SDS011;8446;50.998;6.250;2023-05-10T14:50:13;3.23;;;2.53;;
16665;SDS011;8446;50.998;6.250;2023-05-10T14:52:39;3.87;;;2.80;;
16665;SDS011;8446;50.998;6.250;2023-05-10T14:55:07;3.00;;;2.70;;
16665;SDS011;8446;50.998;6.250;2023-05-10T14:57:34;2.47;;;1.93;;
16665;SDS011;8446;50.998;6.250;2023-05-10T15:00:01;1.87;;;1.43;;